Time;durP1;ratioP1;P1;durP2;ratioP2;P2;SDS_P1;SDS_P2;PMS_P1;PMS_P2;Temp;Humidity;BMP_temperature;BMP_pressure;BME280_temperature;BME280_humidity;BME280_pressure;Samples;Min_cycle;Max_cycle;Signal;HPM_P1;HPM_P2
2021/10/16 00:00:40;;;;;;;;;;;;;;;6.79;91.18;96415.63;5062351;28;19925;-83
2021/10/16 00:03:08;;;;;;;;;;;;;;;6.75;90.92;96424.88;5062941;28;19932;-81
2021/10/16 00:05:33;;;;;;;;;;;;;;;6.73;91.84;96413.84;5062194;28;19952;-79
2021/10/16 00:08:01;;;;;;;;;;;;;;;6.86;90.86;96424.25;5063789;28;19925;-82
2021/10/16 00:10:26;;;;;;;;;;;;;;;6.76;91.21;96423.88;5066449;28;19925;-80
2021/10/16 00:12:52;;;;;;;;;;;;;;;6.69;90.69;96418.66;5070584;28;19967;-81
2021/10/16 00:15:17;;;;;;;;;;;;;;;6.69;90.97;96421.28;5074392;28;19960;-81
2021/10/16 00:17:43;;;;;;;;;;;;;;;6.69;90.71;96415.25;5074612;28;19909;-81
2021/10/16 00:20:11;;;;;;;;;;;;;;;6.63;90.67;96416.09;5071828;28;19980;-80
2021/10/16 00:22:36;;;;;;;;;;;;;;;6.67;90.34;96425.09;5073315;28;19925;-80
2021/10/16 00:25:05;;;;;;;;;;;;;;;6.60;91.04;96422.50;5072573;28;19935;-81
2021/10/16 00:27:30;;;;;;;;;;;;;;;6.66;91.87;96420.88;5074476;28;19996;-79
2021/10/16 00:29:55;;;;;;;;;;;;;;;6.65;91.41;96419.28;5076604;28;19935;-81
2021/10/16 00:32:23;;;;;;;;;;;;;;;6.69;91.55;96415.25;5074882;28;19976;-82
2021/10/16 00:34:48;;;;;;;;;;;;;;;6.64;91.06;96423.72;5076914;28;19924;-80
2021/10/16 00:37:16;;;;;;;;;;;;;;;6.61;91.53;96425.91;5073513;28;19939;-83
2021/10/16 00:39:41;;;;;;;;;;;;;;;6.69;91.27;96428.31;5075589;28;20015;-81
2021/10/16 00:42:08;;;;;;;;;;;;;;;6.74;90.41;96423.28;5070715;28;19932;-83
2021/10/16 00:44:34;;;;;;;;;;;;;;;6.77;90.45;96425.47;5064593;28;19932;-83
2021/10/16 00:47:02;;;;;;;;;;;;;;;6.75;90.38;96419.66;5062173;28;20303;-82
2021/10/16 00:49:28;;;;;;;;;;;;;;;6.78;89.96;96424.47;5063803;28;19992;-80
2021/10/16 00:51:56;;;;;;;;;;;;;;;6.77;90.27;96425.47;5063645;28;19988;-83
2021/10/16 00:54:24;;;;;;;;;;;;;;;6.76;90.00;96436.94;5063689;28;19925;-82
2021/10/16 00:56:54;;;;;;;;;;;;;;;6.75;90.39;96425.69;5063751;28;20024;-82
2021/10/16 00:59:21;;;;;;;;;;;;;;;6.75;90.12;96425.69;5071407;28;19925;-81
2021/10/16 01:01:47;;;;;;;;;;;;;;;6.84;89.51;96421.03;5068044;28;19965;-82
2021/10/16 01:04:12;;;;;;;;;;;;;;;6.83;89.66;96422.03;5067919;28;19951;-79
2021/10/16 01:06:40;;;;;;;;;;;;;;;6.89;89.74;96416.00;5077113;28;19987;-81
2021/10/16 01:09:09;;;;;;;;;;;;;;;7.01;89.84;96421.38;5074185;28;19979;-82
2021/10/16 01:11:36;;;;;;;;;;;;;;;6.86;89.44;96420.81;5071305;28;19939;-80
2021/10/16 01:14:02;;;;;;;;;;;;;;;6.88;89.80;96419.59;5073902;28;19925;-81
2021/10/16 01:16:29;;;;;;;;;;;;;;;6.94;90.37;96421.41;5064296;28;19929;-82
2021/10/16 01:18:55;;;;;;;;;;;;;;;7.06;89.70;96427.59;5064974;28;19928;-82
2021/10/16 01:21:22;;;;;;;;;;;;;;;6.88;89.93;96421.41;5063249;28;19947;-82
2021/10/16 01:23:47;;;;;;;;;;;;;;;6.95;89.62;96422.22;5062815;28;19932;-83
2021/10/16 01:26:13;;;;;;;;;;;;;;;6.86;89.82;96416.41;5062007;28;19928;-82
2021/10/16 01:28:38;;;;;;;;;;;;;;;6.93;89.37;96417.16;5063891;28;19925;-80
2021/10/16 01:31:04;;;;;;;;;;;;;;;6.85;90.00;96420.03;5060497;28;20347;-82
2021/10/16 01:33:29;;;;;;;;;;;;;;;6.92;89.55;96414.75;5061335;28;19929;-82
2021/10/16 01:35:59;;;;;;;;;;;;;;;6.90;89.88;96406.34;5064659;28;19959;-81
2021/10/16 01:38:26;;;;;;;;;;;;;;;6.83;89.86;96407.16;5067198;28;19948;-81
2021/10/16 01:40:51;;;;;;;;;;;;;;;6.88;89.86;96409.13;5062683;28;20462;-83
2021/10/16 01:43:17;;;;;;;;;;;;;;;6.94;89.83;96405.72;5061809;28;19925;-81
2021/10/16 01:45:45;;;;;;;;;;;;;;;6.98;89.22;96404.28;5063019;28;19925;-84
2021/10/16 01:48:10;;;;;;;;;;;;;;;7.01;88.36;96401.25;5067253;28;19925;-82
2021/10/16 01:50:36;;;;;;;;;;;;;;;6.99;88.87;96400.63;5065063;28;19932;-82
2021/10/16 01:53:06;;;;;;;;;;;;;;;7.03;88.73;96404.44;5064388;28;19956;-82
2021/10/16 01:55:32;;;;;;;;;;;;;;;7.08;88.42;96409.88;5063900;28;20020;-84
2021/10/16 01:58:02;;;;;;;;;;;;;;;7.07;88.22;96403.03;5060678;28;19925;-83
2021/10/16 02:00:28;;;;;;;;;;;;;;;7.01;88.39;96403.06;5062511;28;19925;-83
2021/10/16 02:02:54;;;;;;;;;;;;;;;6.90;89.31;96396.69;5070885;28;19955;-83
2021/10/16 02:05:20;;;;;;;;;;;;;;;6.83;89.89;96401.94;5067392;28;20016;-83
2021/10/16 02:07:45;;;;;;;;;;;;;;;6.89;89.32;96400.31;5061307;28;19925;-83
2021/10/16 02:10:12;;;;;;;;;;;;;;;6.85;89.98;96404.34;5060457;28;19998;-82
2021/10/16 02:12:39;;;;;;;;;;;;;;;6.75;89.99;96403.97;5059712;28;19924;-83
2021/10/16 02:15:07;;;;;;;;;;;;;;;6.75;90.08;96404.78;5066221;28;20299;-83
2021/10/16 02:17:32;;;;;;;;;;;;;;;6.79;89.73;96405.97;5063556;28;19925;-82
2021/10/16 02:19:57;;;;;;;;;;;;;;;6.79;90.17;96405.16;5060607;28;19952;-82
2021/10/16 02:22:23;;;;;;;;;;;;;;;6.75;90.36;96407.38;5058504;28;19956;-83
2021/10/16 02:24:50;;;;;;;;;;;;;;;6.84;90.13;96413.19;5058990;28;19925;-83
2021/10/16 02:27:16;;;;;;;;;;;;;;;6.67;91.75;96412.03;5060055;28;19925;-83
2021/10/16 02:29:42;;;;;;;;;;;;;;;6.75;91.87;96404.78;5063214;28;19932;-82
2021/10/16 02:32:08;;;;;;;;;;;;;;;6.70;91.82;96414.25;5067231;28;19928;-82
2021/10/16 02:34:33;;;;;;;;;;;;;;;6.69;92.61;96416.06;5069587;28;19947;-83
2021/10/16 02:36:59;;;;;;;;;;;;;;;6.78;92.76;96393.09;5071995;28;19935;-82
2021/10/16 02:39:24;;;;;;;;;;;;;;;6.80;93.27;96407.56;5060594;28;19944;-82
2021/10/16 02:41:50;;;;;;;;;;;;;;;6.86;92.85;96407.75;5070795;28;19913;-83
2021/10/16 02:44:17;;;;;;;;;;;;;;;6.97;93.11;96410.53;5064733;28;20004;-83
2021/10/16 02:46:44;;;;;;;;;;;;;;;7.07;91.97;96407.47;5058821;28;19928;-84
2021/10/16 02:49:10;;;;;;;;;;;;;;;7.08;92.06;96409.06;5056989;28;19925;-82
2021/10/16 02:51:35;;;;;;;;;;;;;;;7.15;92.08;96409.81;5062678;28;19990;-83
2021/10/16 02:54:03;;;;;;;;;;;;;;;7.29;91.67;96415.81;5060362;28;19929;-85
2021/10/16 02:56:30;;;;;;;;;;;;;;;7.20;91.68;96412.63;5060019;28;19928;-84
2021/10/16 02:58:55;;;;;;;;;;;;;;;7.07;90.76;96412.69;5057759;28;19929;-84
2021/10/16 03:01:23;;;;;;;;;;;;;;;7.14;90.82;96410.84;5058286;28;19933;-84
2021/10/16 03:03:53;;;;;;;;;;;;;;;7.39;90.23;96416.16;5062391;28;19925;-82
2021/10/16 03:06:18;;;;;;;;;;;;;;;7.40;89.11;96412.53;5069812;28;19924;-82
2021/10/16 03:08:44;;;;;;;;;;;;;;;7.36;88.20;96416.56;5068676;28;19967;-83
2021/10/16 03:11:09;;;;;;;;;;;;;;;7.34;88.23;96413.38;5068827;28;19931;-82
2021/10/16 03:13:35;;;;;;;;;;;;;;;7.24;88.36;96413.81;5063375;28;19936;-82
2021/10/16 03:16:00;;;;;;;;;;;;;;;7.44;88.56;96416.31;5063130;28;20351;-83
2021/10/16 03:18:26;;;;;;;;;;;;;;;7.44;88.55;96411.09;5064746;28;19924;-83
2021/10/16 03:20:55;;;;;;;;;;;;;;;7.49;88.58;96406.03;5061005;28;20307;-83
2021/10/16 03:23:20;;;;;;;;;;;;;;;7.50;88.86;96409.44;5060123;28;19925;-84
2021/10/16 03:25:46;;;;;;;;;;;;;;;7.56;87.91;96417.25;5058461;28;19958;-83
2021/10/16 03:28:14;;;;;;;;;;;;;;;7.51;86.99;96418.91;5070030;28;19970;-82
2021/10/16 03:30:41;;;;;;;;;;;;;;;7.48;87.35;96414.91;5060193;28;19924;-81
2021/10/16 03:33:07;;;;;;;;;;;;;;;7.49;87.65;96408.66;5059668;28;20023;-83
2021/10/16 03:35:33;;;;;;;;;;;;;;;7.49;87.68;96406.03;5059140;28;20027;-83
2021/10/16 03:38:02;;;;;;;;;;;;;;;7.32;88.31;96410.97;5059225;28;20393;-83
2021/10/16 03:40:29;;;;;;;;;;;;;;;7.33;88.42;96409.94;5056623;28;20345;-82
2021/10/16 03:42:55;;;;;;;;;;;;;;;7.33;89.06;96412.56;5061767;28;19928;-81
2021/10/16 03:45:23;;;;;;;;;;;;;;;7.26;89.79;96403.13;5067597;28;19956;-83
2021/10/16 03:47:48;;;;;;;;;;;;;;;7.36;88.55;96408.72;5067420;28;19925;-82
2021/10/16 03:50:14;;;;;;;;;;;;;;;7.27;88.95;96408.19;5070070;28;19936;-82
2021/10/16 03:52:39;;;;;;;;;;;;;;;7.22;88.92;96405.38;5076925;28;19924;-82
2021/10/16 03:55:07;;;;;;;;;;;;;;;7.16;89.35;96413.25;5066527;28;19932;-82
2021/10/16 03:57:32;;;;;;;;;;;;;;;7.21;89.56;96410.81;5069647;28;20023;-82
2021/10/16 03:59:58;;;;;;;;;;;;;;;7.31;89.22;96413.78;5059325;28;19960;-82
2021/10/16 04:02:26;;;;;;;;;;;;;;;7.29;89.02;96421.84;5061880;28;20023;-82
2021/10/16 04:04:52;;;;;;;;;;;;;;;7.34;88.85;96419.41;5062741;28;20407;-82
2021/10/16 04:07:17;;;;;;;;;;;;;;;7.30;89.36;96407.75;5061412;28;19925;-83
2021/10/16 04:09:45;;;;;;;;;;;;;;;7.43;89.00;96422.59;5061044;28;20300;-82
2021/10/16 04:12:14;;;;;;;;;;;;;;;7.43;88.78;96414.72;5060458;28;20413;-82
2021/10/16 04:14:39;;;;;;;;;;;;;;;7.43;89.35;96408.69;5074972;28;20023;-82
2021/10/16 04:17:05;;;;;;;;;;;;;;;7.50;88.46;96417.31;5093273;22;19935;-79
2021/10/16 04:19:30;;;;;;;;;;;;;;;7.51;88.27;96403.19;5062496;28;19994;-79
2021/10/16 04:21:56;;;;;;;;;;;;;;;7.53;88.37;96414.25;5061538;28;19925;-78
2021/10/16 04:24:21;;;;;;;;;;;;;;;7.61;88.67;96414.81;5044991;28;19925;-79
2021/10/16 04:26:47;;;;;;;;;;;;;;;7.65;88.18;96419.63;5062320;28;19929;-77
2021/10/16 04:29:14;;;;;;;;;;;;;;;7.70;88.44;96420.59;5044504;28;20432;-77
2021/10/16 04:31:39;;;;;;;;;;;;;;;7.70;87.91;96414.56;5062567;28;20410;-78
2021/10/16 04:34:06;;;;;;;;;;;;;;;7.66;87.69;96416.00;5063332;28;20032;-78
2021/10/16 04:36:32;;;;;;;;;;;;;;;7.70;88.04;96411.94;5067064;28;19924;-79
2021/10/16 04:38:58;;;;;;;;;;;;;;;7.81;88.15;96419.13;5063201;28;19924;-79
2021/10/16 04:41:23;;;;;;;;;;;;;;;7.74;88.14;96420.97;5043930;28;19924;-77
2021/10/16 04:43:49;;;;;;;;;;;;;;;7.74;88.00;96421.75;5061702;28;19940;-79
2021/10/16 04:46:16;;;;;;;;;;;;;;;7.70;88.78;96417.19;5062580;28;19948;-79
2021/10/16 04:48:44;;;;;;;;;;;;;;;7.72;88.62;96412.53;5061920;28;19932;-79
2021/10/16 04:51:09;;;;;;;;;;;;;;;7.79;88.26;96416.69;5062283;28;19936;-77
2021/10/16 04:53:37;;;;;;;;;;;;;;;7.87;87.94;96416.44;5062439;28;19928;-80
2021/10/16 04:56:06;;;;;;;;;;;;;;;7.77;88.16;96408.25;5044287;28;19956;-79
2021/10/16 04:58:31;;;;;;;;;;;;;;;7.83;88.08;96417.88;5063207;28;19925;-78
2021/10/16 05:00:57;;;;;;;;;;;;;;;7.80;88.25;96417.50;5064127;28;19925;-78
2021/10/16 05:03:23;;;;;;;;;;;;;;;7.85;88.19;96415.03;5063651;28;19929;-79
2021/10/16 05:05:49;;;;;;;;;;;;;;;7.74;88.58;96413.09;5058713;28;19917;-78
2021/10/16 05:08:14;;;;;;;;;;;;;;;7.71;89.12;96413.53;5079108;28;19920;-77
2021/10/16 05:10:40;;;;;;;;;;;;;;;7.71;88.92;96403.88;5062482;28;19912;-78
2021/10/16 05:13:05;;;;;;;;;;;;;;;7.84;88.87;96397.72;5059255;28;19929;-79
2021/10/16 05:15:31;;;;;;;;;;;;;;;7.76;89.32;96405.84;5048125;28;20336;-80
2021/10/16 05:17:56;;;;;;;;;;;;;;;7.67;89.52;96401.88;5062311;28;19932;-77
2021/10/16 05:20:23;;;;;;;;;;;;;;;7.68;89.24;96399.03;5066869;28;19936;-77
2021/10/16 05:22:48;;;;;;;;;;;;;;;7.72;89.37;96405.47;5063501;28;19944;-78
2021/10/16 05:25:15;;;;;;;;;;;;;;;7.74;89.53;96403.44;5061495;28;19924;-80
2021/10/16 05:27:41;;;;;;;;;;;;;;;7.83;89.65;96406.59;5043029;28;19978;-79
2021/10/16 05:30:07;;;;;;;;;;;;;;;7.82;89.48;96403.19;5062136;28;19932;-79
2021/10/16 05:32:34;;;;;;;;;;;;;;;7.90;88.93;96409.97;5060716;28;19932;-79
2021/10/16 05:35:00;;;;;;;;;;;;;;;7.88;89.30;96404.16;5062685;28;20020;-79
2021/10/16 05:37:29;;;;;;;;;;;;;;;7.83;89.33;96406.59;5050514;28;19924;-78
2021/10/16 05:39:57;;;;;;;;;;;;;;;7.92;89.03;96409.75;5075086;28;19939;-79
2021/10/16 05:42:22;;;;;;;;;;;;;;;7.75;88.96;96409.47;5072720;28;19992;-79
2021/10/16 05:44:47;;;;;;;;;;;;;;;7.75;89.52;96412.09;5073605;28;19987;-77
2021/10/16 05:47:13;;;;;;;;;;;;;;;7.75;89.66;96412.91;5072875;28;19924;-78
2021/10/16 05:49:38;;;;;;;;;;;;;;;7.79;89.64;96410.66;5066271;28;19925;-78
2021/10/16 05:52:04;;;;;;;;;;;;;;;7.72;90.30;96417.75;5045311;28;20387;-79
2021/10/16 05:54:31;;;;;;;;;;;;;;;7.73;90.64;96417.53;5061949;28;19929;-77
2021/10/16 05:56:56;;;;;;;;;;;;;;;7.76;91.04;96416.31;5041015;28;19973;-78
2021/10/16 05:59:22;;;;;;;;;;;;;;;7.80;90.82;96423.56;5046424;28;19925;-78
2021/10/16 06:01:47;;;;;;;;;;;;;;;7.86;90.54;96416.66;5066392;28;19924;-78
2021/10/16 06:04:12;;;;;;;;;;;;;;;7.92;90.11;96420.25;5042402;28;20345;-78
2021/10/16 06:06:38;;;;;;;;;;;;;;;7.90;89.94;96433.53;5058220;28;19929;-77
2021/10/16 06:09:03;;;;;;;;;;;;;;;7.89;90.64;96432.72;5058591;28;19924;-77
2021/10/16 06:11:30;;;;;;;;;;;;;;;7.97;89.69;96434.31;5058942;28;19928;-78
2021/10/16 06:13:55;;;;;;;;;;;;;;;8.11;89.01;96435.78;5059253;28;19947;-78
2021/10/16 06:16:21;;;;;;;;;;;;;;;8.02;89.19;96439.72;5058993;28;19925;-78
2021/10/16 06:18:46;;;;;;;;;;;;;;;8.04;89.70;96442.09;5059647;28;19936;-79
2021/10/16 06:21:12;;;;;;;;;;;;;;;8.07;89.52;96445.13;5058177;28;19924;-79
2021/10/16 06:23:38;;;;;;;;;;;;;;;8.01;89.98;96438.06;5058711;28;20407;-79
2021/10/16 06:26:03;;;;;;;;;;;;;;;8.10;89.80;96444.66;5040788;28;19932;-79
2021/10/16 06:28:30;;;;;;;;;;;;;;;8.21;89.18;96445.00;5061144;28;19925;-79
2021/10/16 06:30:55;;;;;;;;;;;;;;;8.27;88.76;96438.88;5043848;28;19984;-79
2021/10/16 06:33:22;;;;;;;;;;;;;;;8.40;88.19;96451.91;5059185;28;19971;-77
2021/10/16 06:35:48;;;;;;;;;;;;;;;8.45;88.01;96457.31;5044099;28;19925;-79
2021/10/16 06:38:13;;;;;;;;;;;;;;;8.49;87.90;96455.03;5044160;28;20023;-78
2021/10/16 06:40:39;;;;;;;;;;;;;;;8.50;87.28;96454.84;5062282;28;19925;-78
2021/10/16 06:43:04;;;;;;;;;;;;;;;8.71;87.27;96455.44;5043217;28;19941;-79
2021/10/16 06:45:33;;;;;;;;;;;;;;;8.64;87.06;96461.56;5045849;28;19925;-78
2021/10/16 06:47:58;;;;;;;;;;;;;;;8.68;87.49;96454.88;5044560;28;19925;-77
2021/10/16 06:50:24;;;;;;;;;;;;;;;8.64;87.76;96466.78;5046692;28;19955;-80
2021/10/16 06:52:49;;;;;;;;;;;;;;;8.76;87.46;96460.84;5047641;28;19924;-79
2021/10/16 06:55:14;;;;;;;;;;;;;;;8.89;87.20;96458.09;5047289;28;19925;-79
2021/10/16 06:57:40;;;;;;;;;;;;;;;8.99;86.54;96468.06;5056148;28;19936;-78
2021/10/16 07:00:06;;;;;;;;;;;;;;;8.93;86.63;96467.94;5058627;28;19935;-78
2021/10/16 07:02:33;;;;;;;;;;;;;;;9.05;86.56;96462.75;5056677;28;19925;-80
2021/10/16 07:04:58;;;;;;;;;;;;;;;9.08;86.31;96472.78;5066180;28;19955;-79
2021/10/16 07:07:24;;;;;;;;;;;;;;;9.05;87.03;96475.88;5060993;28;19924;-78
2021/10/16 07:09:51;;;;;;;;;;;;;;;8.91;88.13;96471.78;5061879;28;19924;-79
2021/10/16 07:12:17;;;;;;;;;;;;;;;8.96;88.07;96474.53;5043198;28;19924;-79
2021/10/16 07:14:45;;;;;;;;;;;;;;;9.09;87.23;96468.34;5060342;28;19946;-78
2021/10/16 07:17:10;;;;;;;;;;;;;;;9.03;87.74;96474.47;5058378;28;19932;-78
2021/10/16 07:19:37;;;;;;;;;;;;;;;9.18;87.23;96480.16;5059751;28;19929;-79
2021/10/16 07:22:04;;;;;;;;;;;;;;;9.49;86.05;96479.16;5060165;28;19925;-80
2021/10/16 07:24:30;;;;;;;;;;;;;;;9.55;85.64;96480.91;5042264;28;19936;-80
2021/10/16 07:26:55;;;;;;;;;;;;;;;9.38;85.95;96482.53;5042046;28;20300;-78
2021/10/16 07:29:23;;;;;;;;;;;;;;;9.33;86.38;96477.94;5058817;28;19978;-79
2021/10/16 07:31:49;;;;;;;;;;;;;;;9.33;86.76;96485.03;5059375;28;19931;-78
2021/10/16 07:34:15;;;;;;;;;;;;;;;9.42;86.18;96486.34;5060056;28;20012;-77
2021/10/16 07:36:42;;;;;;;;;;;;;;;9.29;86.49;96489.13;5044456;28;19925;-78
2021/10/16 07:39:08;;;;;;;;;;;;;;;9.10;87.08;96491.75;5064609;28;19987;-78
2021/10/16 07:41:34;;;;;;;;;;;;;;;9.19;87.15;96495.66;5064541;28;19962;-81
2021/10/16 07:44:00;;;;;;;;;;;;;;;9.21;87.15;96495.47;5046523;28;19924;-79
2021/10/16 07:46:28;;;;;;;;;;;;;;;9.07;87.80;96497.44;5066165;28;19975;-78
2021/10/16 07:48:55;;;;;;;;;;;;;;;9.01;87.66;96495.69;5047697;28;19963;-80
2021/10/16 07:51:23;;;;;;;;;;;;;;;9.11;87.43;96498.59;5048269;28;19932;-80
2021/10/16 07:53:50;;;;;;;;;;;;;;;9.18;86.39;96499.31;5065123;28;19924;-80
2021/10/16 07:56:15;;;;;;;;;;;;;;;9.16;87.18;96501.38;5064990;28;19925;-79
2021/10/16 07:58:41;;;;;;;;;;;;;;;9.43;87.06;96503.69;5046599;28;19925;-78
2021/10/16 08:01:07;;;;;;;;;;;;;;;9.71;85.53;96497.88;5046204;28;19932;-80
2021/10/16 08:03:32;;;;;;;;;;;;;;;9.89;84.64;96494.38;5065471;28;19947;-79
2021/10/16 08:05:57;;;;;;;;;;;;;;;9.70;85.23;96507.59;5064699;28;20033;-80
2021/10/16 08:08:23;;;;;;;;;;;;;;;9.62;85.64;96501.81;5063879;28;19924;-79
2021/10/16 08:10:49;;;;;;;;;;;;;;;9.86;85.93;96500.09;5045789;28;19925;-78
2021/10/16 08:13:15;;;;;;;;;;;;;;;9.71;86.03;96503.94;5063644;28;20454;-79
2021/10/16 08:15:42;;;;;;;;;;;;;;;10.15;85.05;96501.88;5045522;28;19925;-79
2021/10/16 08:18:08;;;;;;;;;;;;;;;10.38;84.46;96509.03;5062855;28;19924;-80
2021/10/16 08:20:33;;;;;;;;;;;;;;;10.40;83.76;96503.56;5055165;28;20400;-79
2021/10/16 08:22:59;;;;;;;;;;;;;;;10.62;82.82;96503.81;5068826;28;19943;-78
2021/10/16 08:25:24;;;;;;;;;;;;;;;10.82;81.50;96514.81;5052533;28;19924;-79
2021/10/16 08:27:51;;;;;;;;;;;;;;;10.87;80.82;96516.72;5063813;28;19924;-79
2021/10/16 08:30:18;;;;;;;;;;;;;;;11.15;80.23;96498.41;5063636;28;19928;-79
2021/10/16 08:32:43;;;;;;;;;;;;;;;11.34;79.50;96506.13;5062883;28;19932;-79
2021/10/16 08:35:09;;;;;;;;;;;;;;;11.60;78.30;96516.13;5063618;28;19932;-79
2021/10/16 08:37:35;;;;;;;;;;;;;;;11.88;77.14;96506.66;5045667;28;19924;-79
2021/10/16 08:40:00;;;;;;;;;;;;;;;12.18;76.19;96512.47;5063986;28;19932;-79
2021/10/16 08:42:26;;;;;;;;;;;;;;;12.31;75.84;96521.91;5063146;28;19947;-79
2021/10/16 08:44:58;;;;;;;;;;;;;;;12.42;75.28;96517.59;5063498;28;19946;-79
2021/10/16 08:47:29;;;;;;;;;;;;;;;12.53;74.71;96522.00;5064860;28;20211;-79
2021/10/16 08:49:56;;;;;;;;;;;;;;;12.46;74.11;96518.75;5066461;28;19925;-78
2021/10/16 08:52:21;;;;;;;;;;;;;;;12.30;75.19;96528.25;5067961;28;19924;-79
2021/10/16 08:54:46;;;;;;;;;;;;;;;12.11;75.86;96522.41;5065417;28;20415;-79
2021/10/16 08:57:12;;;;;;;;;;;;;;;11.67;77.50;96521.28;5048386;28;19928;-78
2021/10/16 08:59:37;;;;;;;;;;;;;;;11.70;78.13;96521.59;5069573;28;20019;-80
2021/10/16 09:02:06;;;;;;;;;;;;;;;11.67;78.11;96522.06;5064951;28;19925;-79
2021/10/16 09:04:32;;;;;;;;;;;;;;;11.77;78.01;96517.00;5067183;28;19925;-79
2021/10/16 09:06:58;;;;;;;;;;;;;;;11.87;77.66;96520.88;5046244;28;20028;-79
2021/10/16 09:09:26;;;;;;;;;;;;;;;11.81;77.02;96518.16;5045538;28;19924;-79
2021/10/16 09:11:54;;;;;;;;;;;;;;;12.12;76.22;96529.25;5063671;28;19932;-80
2021/10/16 09:14:21;;;;;;;;;;;;;;;12.07;76.72;96518.63;5049728;28;19991;-80
2021/10/16 09:16:47;;;;;;;;;;;;;;;12.12;76.84;96529.25;5062124;28;19992;-80
2021/10/16 09:19:15;;;;;;;;;;;;;;;11.85;77.99;96522.97;5067107;28;19947;-79
2021/10/16 09:21:42;;;;;;;;;;;;;;;12.28;76.03;96523.22;5071328;28;19924;-80
2021/10/16 09:24:22;;;;;;;;;;;;;;;11.78;77.17;96517.78;5072128;28;19936;-78
2021/10/16 09:26:49;;;;;;;;;;;;;;;11.94;77.42;96521.53;5066066;28;19925;-80
2021/10/16 09:29:15;;;;;;;;;;;;;;;12.08;77.29;96528.94;5049275;28;19932;-79
2021/10/16 09:31:41;;;;;;;;;;;;;;;12.02;77.48;96523.81;5047512;28;20397;-80
2021/10/16 09:34:07;;;;;;;;;;;;;;;11.56;78.75;96531.59;5065020;28;20020;-78
2021/10/16 09:36:37;;;;;;;;;;;;;;;11.50;79.10;96537.81;5065117;28;19928;-80
2021/10/16 09:39:04;;;;;;;;;;;;;;;11.48;79.58;96533.81;5066745;28;19939;-79
2021/10/16 09:41:30;;;;;;;;;;;;;;;11.61;79.63;96533.53;5058819;28;19913;-77
2021/10/16 09:43:56;;;;;;;;;;;;;;;11.21;80.60;96534.34;5078341;28;19990;-77
2021/10/16 09:46:22;;;;;;;;;;;;;;;11.25;80.38;96540.75;5078270;28;19913;-77
2021/10/16 09:48:48;;;;;;;;;;;;;;;11.47;80.24;96535.66;5077712;28;19955;-77
2021/10/16 09:51:14;;;;;;;;;;;;;;;11.69;79.31;96535.81;5071122;28;19924;-79
2021/10/16 09:53:43;;;;;;;;;;;;;;;11.84;78.64;96535.34;5068288;28;19925;-80
2021/10/16 09:56:09;;;;;;;;;;;;;;;11.68;79.06;96543.97;5066574;28;19925;-80
2021/10/16 09:58:36;;;;;;;;;;;;;;;11.20;81.09;96532.75;5064749;28;19924;-80
2021/10/16 10:01:01;;;;;;;;;;;;;;;11.62;79.02;96540.41;5064956;28;20090;-79
2021/10/16 10:03:29;;;;;;;;;;;;;;;11.80;78.68;96528.91;5064125;28;19925;-79
2021/10/16 10:05:54;;;;;;;;;;;;;;;11.55;79.64;96535.28;5062665;28;20018;-77
2021/10/16 10:08:22;;;;;;;;;;;;;;;11.89;78.47;96537.25;5043703;28;20342;-79
2021/10/16 10:10:49;;;;;;;;;;;;;;;11.92;78.99;96528.88;5064398;28;19925;-80
2021/10/16 10:13:16;;;;;;;;;;;;;;;11.92;78.39;96529.69;5063476;28;19925;-80
2021/10/16 10:15:41;;;;;;;;;;;;;;;12.20;77.70;96536.78;5065002;28;19924;-79
2021/10/16 10:20:52;;;;;;;;;;;;;;;11.98;78.00;96530.56;5069827;28;19957;-83
2021/10/16 10:23:21;;;;;;;;;;;;;;;11.49;80.35;96525.69;5068492;28;19924;-83
2021/10/16 10:25:47;;;;;;;;;;;;;;;11.94;78.77;96529.44;5067124;28;19932;-83
2021/10/16 10:28:34;;;;;;;;;;;;;;;12.17;78.10;96533.81;5069670;28;20007;-84
2021/10/16 10:30:59;;;;;;;;;;;;;;;12.15;77.73;96533.25;5071918;28;19948;-84
2021/10/16 10:33:29;;;;;;;;;;;;;;;12.55;76.53;96527.88;5069254;28;19985;-84
2021/10/16 10:36:10;;;;;;;;;;;;;;;12.41;76.52;96531.84;5068561;28;19925;-84
2021/10/16 10:38:36;;;;;;;;;;;;;;;11.96;78.59;96522.13;5071487;28;19928;-81
2021/10/16 10:41:28;;;;;;;;;;;;;;;12.17;77.16;96532.00;5073773;28;19924;-83
2021/10/16 10:43:55;;;;;;;;;;;;;;;12.16;77.88;96527.75;5069125;28;19929;-82
2021/10/16 10:46:21;;;;;;;;;;;;;;;11.90;78.79;96520.44;5067828;28;19935;-84
2021/10/16 10:48:47;;;;;;;;;;;;;;;12.54;76.49;96526.28;5068381;28;20000;-83
2021/10/16 10:51:25;;;;;;;;;;;;;;;12.77;76.17;96520.81;5066757;28;19929;-82
2021/10/16 10:54:07;;;;;;;;;;;;;;;13.30;72.91;96523.94;5066779;28;19932;-84
2021/10/16 10:56:38;;;;;;;;;;;;;;;13.04;73.33;96528.06;5067619;28;20266;-83
2021/10/16 10:59:09;;;;;;;;;;;;;;;12.49;75.13;96518.28;5076157;28;19943;-80
2021/10/16 11:01:49;;;;;;;;;;;;;;;12.47;75.84;96517.69;5073365;28;19928;-85
2021/10/16 11:04:34;;;;;;;;;;;;;;;12.82;75.80;96520.09;5065295;28;20023;-83
2021/10/16 11:07:02;;;;;;;;;;;;;;;12.80;75.45;96515.03;5067573;28;19984;-81
2021/10/16 11:09:27;;;;;;;;;;;;;;;12.79;75.13;96518.72;5067082;28;19925;-81
2021/10/16 11:11:53;;;;;;;;;;;;;;;12.67;74.82;96512.72;5064889;28;19924;-81
2021/10/16 11:14:20;;;;;;;;;;;;;;;12.28;76.80;96509.22;5064339;28;19937;-81
2021/10/16 11:16:54;;;;;;;;;;;;;;;12.51;76.43;96505.63;5065482;28;19924;-81
2021/10/16 11:19:20;;;;;;;;;;;;;;;12.61;76.66;96508.44;5067455;28;19913;-82
2021/10/16 11:21:49;;;;;;;;;;;;;;;12.73;75.24;96501.22;5065853;28;20062;-84
2021/10/16 11:24:15;;;;;;;;;;;;;;;12.20;76.91;96502.47;5064361;28;19973;-83
2021/10/16 11:26:49;;;;;;;;;;;;;;;12.78;75.71;96496.00;5064894;28;20435;-82
2021/10/16 11:29:27;;;;;;;;;;;;;;;12.82;74.11;96499.75;5072334;28;20044;-83
2021/10/16 11:32:07;;;;;;;;;;;;;;;13.29;73.12;96485.34;5066440;28;19979;-82
2021/10/16 11:34:33;;;;;;;;;;;;;;;12.90;74.21;96492.47;5066116;28;19990;-83
2021/10/16 11:37:01;;;;;;;;;;;;;;;12.97;74.29;96479.88;5064522;28;19929;-83
2021/10/16 11:39:29;;;;;;;;;;;;;;;13.01;73.72;96483.63;5066202;28;20373;-83
2021/10/16 11:41:55;;;;;;;;;;;;;;;12.95;74.07;96480.13;5067831;28;19999;-83
2021/10/16 11:44:20;;;;;;;;;;;;;;;13.13;73.80;96468.50;5065343;28;19924;-84
2021/10/16 11:46:56;;;;;;;;;;;;;;;12.92;73.98;96482.47;5063497;28;19924;-82
2021/10/16 11:49:23;;;;;;;;;;;;;;;12.70;74.79;96475.31;5064650;28;19931;-84
2021/10/16 11:51:48;;;;;;;;;;;;;;;12.76;74.91;96471.69;5063963;28;19960;-84
2021/10/16 11:54:16;;;;;;;;;;;;;;;12.98;73.50;96465.66;5064296;28;19924;-81
2021/10/16 11:56:42;;;;;;;;;;;;;;;13.48;71.82;96467.34;5066238;28;19984;-83
2021/10/16 11:59:07;;;;;;;;;;;;;;;13.43;71.85;96462.00;5068675;28;19956;-83
2021/10/16 12:01:42;;;;;;;;;;;;;;;12.86;73.08;96460.47;5064960;28;20000;-83
2021/10/16 12:04:13;;;;;;;;;;;;;;;12.98;72.37;96463.00;5065905;28;19936;-83
2021/10/16 12:06:40;;;;;;;;;;;;;;;12.60;73.32;96454.84;5066081;28;19925;-84
2021/10/16 12:09:11;;;;;;;;;;;;;;;12.93;73.10;96457.66;5065482;28;20039;-84
2021/10/16 12:11:37;;;;;;;;;;;;;;;13.39;70.94;96451.13;5071712;28;19913;-79
2021/10/16 12:14:05;;;;;;;;;;;;;;;13.71;69.61;96450.41;5075746;28;19974;-81
2021/10/16 12:16:36;;;;;;;;;;;;;;;13.60;69.51;96446.84;5071428;28;19924;-83
2021/10/16 12:19:03;;;;;;;;;;;;;;;13.66;69.64;96449.28;5068309;28;19968;-80
2021/10/16 12:21:30;;;;;;;;;;;;;;;13.89;68.18;96445.56;5075648;28;19913;-81
2021/10/16 12:24:12;;;;;;;;;;;;;;;13.41;67.54;96450.88;5074936;28;19925;-86
2021/10/16 12:26:38;;;;;;;;;;;;;;;13.25;67.93;96432.22;5069531;28;19925;-83
2021/10/16 12:29:04;;;;;;;;;;;;;;;13.33;67.74;96447.63;5070185;28;20359;-82
2021/10/16 12:31:43;;;;;;;;;;;;;;;12.96;69.67;96438.69;5070308;28;19939;-82
2021/10/16 12:34:15;;;;;;;;;;;;;;;12.65;70.83;96448.84;5072139;28;19924;-84
2021/10/16 12:36:48;;;;;;;;;;;;;;;12.70;70.40;96450.72;5073551;28;19925;-82
2021/10/16 12:39:22;;;;;;;;;;;;;;;12.26;70.82;96451.41;5073143;28;19932;-83
2021/10/16 12:41:47;;;;;;;;;;;;;;;12.63;69.15;96444.84;5072787;28;20046;-82
2021/10/16 12:44:13;;;;;;;;;;;;;;;12.69;68.53;96455.22;5087662;28;20067;-81
2021/10/16 12:46:39;;;;;;;;;;;;;;;12.59;68.22;96447.16;5070535;28;19924;-82
2021/10/16 12:49:07;;;;;;;;;;;;;;;12.78;68.08;96437.13;5070020;28;20003;-82
2021/10/16 12:51:39;;;;;;;;;;;;;;;12.72;68.44;96440.75;5069548;28;19925;-83
2021/10/16 12:54:09;;;;;;;;;;;;;;;12.84;68.46;96436.16;5069965;28;19996;-84